Time;durP1;ratioP1;P1;durP2;ratioP2;P2;SDS_P1;SDS_P2;PMS_P1;PMS_P2;Temp;Humidity;BMP_temperature;BMP_pressure;BME280_temperature;BME280_humidity;BME280_pressure;Samples;Min_cycle;Max_cycle;Signal;HPM_P1;HPM_P2
2023/07/12 00:00:28;;;;;;;7.88;4.40;;;24.80;99.90;;;;;;5000087;28;20214;-73
2023/07/12 00:02:58;;;;;;;10.75;4.13;;;24.80;99.90;;;;;;5005394;28;20212;-73
2023/07/12 00:05:27;;;;;;;6.00;4.05;;;24.70;99.90;;;;;;5000335;28;20192;-73
2023/07/12 00:07:53;;;;;;;4.45;4.03;;;24.70;99.90;;;;;;4999646;28;20182;-73
2023/07/12 00:10:35;;;;;;;5.05;4.10;;;24.70;99.90;;;;;;5001776;28;20258;-73
2023/07/12 00:13:02;;;;;;;7.45;4.32;;;24.70;99.90;;;;;;4998406;28;20214;-73
2023/07/12 00:15:37;;;;;;;7.28;4.20;;;24.70;99.90;;;;;;5016681;28;21164;-73
2023/07/12 00:18:10;;;;;;;5.53;3.92;;;24.70;99.90;;;;;;4999991;28;20224;-73
2023/07/12 00:20:36;;;;;;;5.40;3.60;;;24.70;99.90;;;;;;5002160;28;20226;-74
2023/07/12 00:23:03;;;;;;;5.18;3.95;;;24.60;99.90;;;;;;5001603;28;20208;-73
2023/07/12 00:25:32;;;;;;;6.65;4.53;;;24.60;99.90;;;;;;4999932;28;20213;-72
2023/07/12 00:28:00;;;;;;;6.95;3.97;;;24.60;99.90;;;;;;5000649;28;20209;-73
2023/07/12 00:30:30;;;;;;;7.22;4.20;;;24.60;99.90;;;;;;4999786;28;20205;-73
2023/07/12 00:33:02;;;;;;;5.60;4.32;;;24.50;99.90;;;;;;4998247;28;20219;-73
2023/07/12 00:35:28;;;;;;;4.53;4.05;;;24.60;99.90;;;;;;5023080;28;20205;-72
2023/07/12 00:37:56;;;;;;;7.05;4.63;;;24.60;99.90;;;;;;5006790;28;20252;-73
2023/07/12 00:40:49;;;;;;;6.47;4.72;;;24.60;99.90;;;;;;5000116;28;20208;-73
2023/07/12 00:43:34;;;;;;;6.20;4.47;;;24.60;99.90;;;;;;5014310;28;20305;-72
2023/07/12 00:46:02;;;;;;;6.10;4.28;;;24.50;99.90;;;;;;5001433;28;20213;-73
2023/07/12 00:48:29;;;;;;;5.72;4.47;;;24.60;99.90;;;;;;5000545;28;20213;-73
2023/07/12 00:50:54;;;;;;;5.63;4.05;;;24.60;99.90;;;;;;4998735;28;20206;-74
2023/07/12 00:53:25;;;;;;;5.75;4.38;;;24.60;99.90;;;;;;5001468;28;20220;-73
2023/07/12 00:55:57;;;;;;;7.18;4.43;;;24.60;99.90;;;;;;4999097;28;20181;-73
2023/07/12 00:58:23;;;;;;;6.38;4.45;;;24.50;99.90;;;;;;4998052;28;20205;-73
2023/07/12 01:00:51;;;;;;;7.13;4.57;;;24.50;99.90;;;;;;5008189;28;20691;-74
2023/07/12 01:03:20;;;;;;;5.93;4.63;;;24.40;99.90;;;;;;4998364;28;20206;-75
2023/07/12 01:05:46;;;;;;;7.53;4.30;;;24.40;99.90;;;;;;4998491;28;20213;-75
2023/07/12 01:08:13;;;;;;;5.35;4.38;;;24.40;99.90;;;;;;4997813;28;20178;-75
2023/07/12 01:10:39;;;;;;;6.90;4.07;;;24.40;99.90;;;;;;5001356;28;20201;-74
2023/07/12 01:13:06;;;;;;;6.93;4.53;;;24.40;99.90;;;;;;4998818;28;20252;-74
2023/07/12 01:15:33;;;;;;;8.38;4.43;;;24.30;99.90;;;;;;5013220;28;20241;-74
2023/07/12 01:17:59;;;;;;;6.97;4.40;;;24.30;99.90;;;;;;4999018;28;20770;-74
2023/07/12 01:20:25;;;;;;;5.32;4.60;;;24.30;99.90;;;;;;4999859;28;20233;-74
2023/07/12 01:22:55;;;;;;;6.25;4.40;;;24.30;99.90;;;;;;5001588;28;20648;-74
2023/07/12 01:25:35;;;;;;;6.30;4.90;;;24.30;99.90;;;;;;5000017;28;20206;-74
2023/07/12 01:28:01;;;;;;;6.63;4.45;;;24.30;99.90;;;;;;4995476;28;20292;-74
2023/07/12 01:30:27;;;;;;;5.85;4.15;;;24.30;99.90;;;;;;4999738;28;20299;-75
2023/07/12 01:32:53;;;;;;;10.07;5.43;;;24.20;99.90;;;;;;5000725;28;20205;-74
2023/07/12 01:35:19;;;;;;;5.78;4.80;;;24.10;99.90;;;;;;4993609;28;20186;-75
2023/07/12 01:37:44;;;;;;;6.13;4.28;;;24.10;99.90;;;;;;4996859;28;20209;-74
2023/07/12 01:40:11;;;;;;;7.72;4.93;;;24.10;99.90;;;;;;4995669;28;20688;-75
2023/07/12 01:42:36;;;;;;;6.13;4.50;;;24.10;99.90;;;;;;4997740;28;20209;-74
2023/07/12 01:45:03;;;;;;;7.63;4.60;;;24.10;99.90;;;;;;4997252;28;20217;-74
2023/07/12 01:47:30;;;;;;;7.25;4.65;;;24.00;99.90;;;;;;4998969;28;20267;-74
2023/07/12 01:49:55;;;;;;;7.25;4.35;;;24.00;99.90;;;;;;4997586;28;20371;-74
2023/07/12 01:52:21;;;;;;;6.43;4.60;;;24.00;99.90;;;;;;4997816;28;20293;-75
2023/07/12 01:54:47;;;;;;;6.45;4.93;;;23.90;99.90;;;;;;5000496;28;20668;-72
2023/07/12 01:57:12;;;;;;;6.68;5.10;;;23.90;99.90;;;;;;5022458;28;20212;-73
2023/07/12 01:59:38;;;;;;;6.90;4.90;;;23.80;99.90;;;;;;4999030;28;20209;-73
2023/07/12 02:02:04;;;;;;;7.75;4.95;;;23.80;99.90;;;;;;4997986;28;20327;-73
2023/07/12 02:04:30;;;;;;;5.55;4.40;;;23.90;99.90;;;;;;5000080;28;20706;-73
2023/07/12 02:06:55;;;;;;;10.40;5.05;;;23.80;99.90;;;;;;4997794;28;20214;-73
2023/07/12 02:09:21;;;;;;;5.90;4.55;;;23.80;99.90;;;;;;4996915;28;20209;-73
2023/07/12 02:11:47;;;;;;;6.57;4.97;;;23.60;99.90;;;;;;5011440;28;20229;-73
2023/07/12 02:14:12;;;;;;;6.00;4.80;;;23.60;99.90;;;;;;4999103;28;20670;-74
2023/07/12 02:16:38;;;;;;;7.00;4.85;;;23.60;99.90;;;;;;4998145;28;20220;-73
2023/07/12 02:19:03;;;;;;;6.53;5.05;;;23.60;99.90;;;;;;5001185;28;20212;-73
2023/07/12 02:21:29;;;;;;;6.93;5.00;;;23.50;99.90;;;;;;5000616;28;20221;-74
2023/07/12 02:23:55;;;;;;;7.97;5.60;;;23.50;99.90;;;;;;5000310;28;20217;-73
2023/07/12 02:26:20;;;;;;;8.00;5.45;;;23.50;99.90;;;;;;5003387;28;20248;-74
2023/07/12 02:28:46;;;;;;;7.32;5.32;;;23.40;99.90;;;;;;5003554;28;20185;-73
2023/07/12 02:31:20;;;;;;;6.60;5.25;;;23.40;99.90;;;;;;5005765;28;20217;-73
2023/07/12 02:33:46;;;;;;;6.72;5.10;;;23.40;99.90;;;;;;5018520;28;20675;-74
2023/07/12 02:36:12;;;;;;;6.57;4.97;;;23.40;99.90;;;;;;5017486;28;20211;-72
2023/07/12 02:38:37;;;;;;;6.72;5.65;;;23.40;99.90;;;;;;5002700;28;20224;-73
2023/07/12 02:41:06;;;;;;;7.03;5.50;;;23.40;99.90;;;;;;5008787;28;20200;-73
2023/07/12 02:43:31;;;;;;;9.63;5.47;;;23.50;99.90;;;;;;5022168;28;20307;-73
2023/07/12 02:45:57;;;;;;;7.28;5.68;;;23.60;99.90;;;;;;5003820;28;20305;-74
2023/07/12 02:48:23;;;;;;;9.15;5.43;;;23.60;99.90;;;;;;5007032;28;20266;-73
2023/07/12 02:50:48;;;;;;;6.57;5.63;;;23.60;99.90;;;;;;5005011;28;20337;-73
2023/07/12 02:53:18;;;;;;;5.90;5.20;;;23.60;99.90;;;;;;5001834;28;20196;-74
2023/07/12 02:55:50;;;;;;;8.10;5.32;;;23.60;99.90;;;;;;4997844;28;20189;-73
2023/07/12 02:58:18;;;;;;;10.75;5.35;;;23.70;99.90;;;;;;4998719;28;20217;-73
2023/07/12 03:00:43;;;;;;;7.18;5.72;;;23.60;99.90;;;;;;5005044;28;20597;-73
2023/07/12 03:03:09;;;;;;;8.30;6.55;;;23.70;99.90;;;;;;5011154;28;20197;-74
2023/07/12 03:05:36;;;;;;;7.55;5.68;;;23.70;99.90;;;;;;5006435;28;20216;-73
2023/07/12 03:08:02;;;;;;;9.48;6.05;;;23.70;99.90;;;;;;5005113;28;20227;-73
2023/07/12 03:10:28;;;;;;;9.40;6.32;;;23.70;99.90;;;;;;5003984;28;20242;-73
2023/07/12 03:12:54;;;;;;;8.15;6.18;;;23.60;99.90;;;;;;5004319;28;20216;-73
2023/07/12 03:15:20;;;;;;;8.05;5.85;;;23.70;99.90;;;;;;5002035;28;20201;-74
2023/07/12 03:17:46;;;;;;;8.43;5.57;;;23.70;99.90;;;;;;5003166;28;20224;-73
2023/07/12 03:20:12;;;;;;;7.70;6.03;;;23.80;99.90;;;;;;5002060;28;20713;-73
2023/07/12 03:22:38;;;;;;;7.75;6.07;;;23.80;99.90;;;;;;5018448;28;20651;-74
2023/07/12 03:25:04;;;;;;;10.05;6.10;;;23.80;99.90;;;;;;4999441;28;20738;-73
2023/07/12 03:27:29;;;;;;;8.80;7.05;;;23.70;99.90;;;;;;5002157;28;20205;-72
2023/07/12 03:29:55;;;;;;;10.98;6.93;;;23.70;99.90;;;;;;4998401;28;20272;-73
2023/07/12 03:32:22;;;;;;;6.45;5.78;;;23.70;99.90;;;;;;5002785;28;20205;-73
2023/07/12 03:34:47;;;;;;;9.63;6.53;;;23.70;99.90;;;;;;5002620;28;20291;-72
2023/07/12 03:37:13;;;;;;;9.43;6.18;;;23.60;99.90;;;;;;4999022;28;20260;-73
2023/07/12 03:39:38;;;;;;;10.10;6.65;;;23.70;99.90;;;;;;4994233;28;20209;-73
2023/07/12 03:42:04;;;;;;;9.02;6.38;;;23.70;99.90;;;;;;4999292;28;20696;-73
2023/07/12 03:44:30;;;;;;;10.05;6.50;;;23.60;99.90;;;;;;4996497;28;20213;-74
2023/07/12 03:46:56;;;;;;;11.73;6.32;;;23.60;99.90;;;;;;5002251;28;20601;-75
2023/07/12 03:49:21;;;;;;;7.55;6.70;;;23.60;99.90;;;;;;5001079;28;20205;-75
2023/07/12 03:51:47;;;;;;;9.20;6.45;;;23.60;99.90;;;;;;4999504;28;20224;-74
2023/07/12 03:54:14;;;;;;;7.72;6.15;;;23.60;99.90;;;;;;4999104;28;20680;-75
2023/07/12 03:56:40;;;;;;;8.77;6.75;;;23.70;99.90;;;;;;5016440;28;20216;-74
2023/07/12 03:59:08;;;;;;;10.07;7.28;;;23.70;99.90;;;;;;4999938;28;20714;-74
2023/07/12 04:01:35;;;;;;;12.00;8.35;;;23.70;99.90;;;;;;5002194;28;20221;-74
2023/07/12 04:04:00;;;;;;;8.73;6.55;;;23.90;99.90;;;;;;5000474;28;20592;-74
2023/07/12 04:06:26;;;;;;;10.57;7.90;;;23.80;99.90;;;;;;5004373;28;20223;-75
2023/07/12 04:08:51;;;;;;;10.25;6.57;;;23.80;99.90;;;;;;5008383;28;20305;-74
2023/07/12 04:11:26;;;;;;;9.23;6.68;;;23.90;99.90;;;;;;4998049;28;20229;-77
2023/07/12 04:13:52;;;;;;;8.77;6.72;;;23.90;99.90;;;;;;5002066;28;20224;-74
2023/07/12 04:16:18;;;;;;;10.73;6.72;;;24.00;99.90;;;;;;5009801;28;20619;-75
2023/07/12 04:18:44;;;;;;;10.40;6.68;;;24.00;99.90;;;;;;4999286;28;20244;-75
2023/07/12 04:21:09;;;;;;;7.68;6.75;;;24.10;99.90;;;;;;4998324;28;20217;-74
2023/07/12 04:23:35;;;;;;;8.98;7.30;;;24.20;99.90;;;;;;4997421;28;20213;-74
2023/07/12 04:26:02;;;;;;;9.02;7.30;;;24.30;99.90;;;;;;4995972;28;20248;-74
2023/07/12 04:28:31;;;;;;;9.07;7.10;;;24.40;99.90;;;;;;5000264;28;20213;-74
2023/07/12 04:31:01;;;;;;;10.05;8.02;;;24.40;99.90;;;;;;5012208;28;20707;-74
2023/07/12 04:33:27;;;;;;;9.63;7.35;;;24.50;99.90;;;;;;4998779;28;20583;-74
2023/07/12 04:35:53;;;;;;;12.55;7.85;;;24.50;99.90;;;;;;5000416;28;20293;-74
2023/07/12 04:38:18;;;;;;;9.73;7.60;;;24.60;99.90;;;;;;4997844;28;20213;-74
2023/07/12 04:40:52;;;;;;;11.52;7.60;;;24.70;99.90;;;;;;5001562;28;20205;-74
2023/07/12 04:43:18;;;;;;;9.00;7.45;;;24.60;99.90;;;;;;4998988;28;20212;-74
2023/07/12 04:45:45;;;;;;;9.50;7.10;;;24.70;99.90;;;;;;5001390;28;20694;-74
2023/07/12 04:48:11;;;;;;;9.43;7.35;;;24.70;99.90;;;;;;4998180;28;20335;-74
2023/07/12 04:50:36;;;;;;;11.43;8.00;;;24.60;99.90;;;;;;5009802;28;20251;-75
2023/07/12 04:53:03;;;;;;;10.27;8.93;;;24.50;99.90;;;;;;4999344;28;20181;-74
2023/07/12 04:55:29;;;;;;;11.10;8.55;;;24.60;99.90;;;;;;4998337;28;20722;-75
2023/07/12 04:57:55;;;;;;;12.40;8.65;;;24.50;99.90;;;;;;4999024;28;20233;-75
2023/07/12 05:00:23;;;;;;;13.50;7.53;;;24.50;99.90;;;;;;4998392;28;20264;-74
2023/07/12 05:02:49;;;;;;;11.20;7.72;;;24.60;99.90;;;;;;4998403;28;20817;-74
2023/07/12 05:05:15;;;;;;;11.02;7.80;;;24.50;99.90;;;;;;4995334;28;20193;-76
2023/07/12 05:07:41;;;;;;;11.80;8.13;;;24.60;99.90;;;;;;5004264;28;20173;-74
2023/07/12 05:10:10;;;;;;;14.15;10.25;;;24.70;99.90;;;;;;5000079;28;20216;-75
2023/07/12 05:12:36;;;;;;;9.00;8.10;;;24.90;99.90;;;;;;5001130;28;20206;-75
2023/07/12 05:15:04;;;;;;;10.02;8.20;;;25.00;99.90;;;;;;4999561;28;20223;-74
2023/07/12 05:17:29;;;;;;;11.13;8.75;;;25.10;99.90;;;;;;4999640;28;20216;-75
2023/07/12 05:19:56;;;;;;;10.50;8.15;;;25.20;99.90;;;;;;5000520;28;20180;-74
2023/07/12 05:22:21;;;;;;;13.85;10.35;;;25.20;99.90;;;;;;4996351;28;20303;-75
2023/07/12 05:24:47;;;;;;;11.40;8.23;;;25.50;99.90;;;;;;5000795;28;20300;-75
2023/07/12 05:27:13;;;;;;;11.45;8.75;;;25.60;99.90;;;;;;5002260;28;20201;-74
2023/07/12 05:29:38;;;;;;;14.23;9.15;;;25.70;99.90;;;;;;4993131;28;20204;-74
2023/07/12 05:32:04;;;;;;;15.95;9.15;;;25.70;99.90;;;;;;5001867;28;20734;-74
2023/07/12 05:34:30;;;;;;;11.02;9.38;;;25.70;99.90;;;;;;4997924;28;20255;-75
2023/07/12 05:36:55;;;;;;;11.02;8.73;;;25.60;99.90;;;;;;4996815;28;20217;-74
2023/07/12 05:39:21;;;;;;;11.75;9.15;;;25.60;99.90;;;;;;4995995;28;20205;-74
2023/07/12 05:41:47;;;;;;;12.80;9.63;;;25.70;99.90;;;;;;4998961;28;20699;-74
2023/07/12 05:44:12;;;;;;;10.23;9.07;;;25.70;99.90;;;;;;4997441;28;20173;-75
2023/07/12 05:46:38;;;;;;;12.77;9.18;;;25.60;99.90;;;;;;4999406;28;20652;-75
2023/07/12 05:49:04;;;;;;;12.48;9.90;;;25.70;99.90;;;;;;4999447;28;20221;-74
2023/07/12 05:51:29;;;;;;;13.55;9.93;;;25.50;99.90;;;;;;4996465;28;20563;-74
2023/07/12 05:53:55;;;;;;;14.52;10.05;;;25.60;99.90;;;;;;5000366;28;20216;-74
2023/07/12 05:56:21;;;;;;;16.45;11.85;;;25.60;99.90;;;;;;4994459;28;20201;-73
2023/07/12 05:58:46;;;;;;;13.55;9.50;;;25.60;99.90;;;;;;4999974;28;20192;-73
2023/07/12 06:01:12;;;;;;;13.88;9.88;;;25.60;99.90;;;;;;4993406;28;20749;-74
2023/07/12 06:03:38;;;;;;;11.80;9.32;;;25.60;99.90;;;;;;5000256;28;20240;-73
2023/07/12 06:06:07;;;;;;;15.20;9.43;;;25.50;99.90;;;;;;4999308;28;20264;-74
2023/07/12 06:08:34;;;;;;;16.40;9.93;;;25.50;99.90;;;;;;4997463;28;20221;-73
2023/07/12 06:10:59;;;;;;;13.85;10.10;;;25.50;99.90;;;;;;4996333;28;20190;-73
2023/07/12 06:13:25;;;;;;;13.90;10.55;;;25.50;99.90;;;;;;5007077;28;20634;-73
2023/07/12 06:15:51;;;;;;;12.88;10.10;;;25.50;99.90;;;;;;4997345;28;20212;-74
2023/07/12 06:18:17;;;;;;;10.57;9.48;;;25.50;99.90;;;;;;4995780;28;20221;-76
2023/07/12 06:20:43;;;;;;;13.70;10.20;;;25.50;99.90;;;;;;5002074;28;20232;-73
2023/07/12 06:23:09;;;;;;;12.30;8.55;;;25.50;99.90;;;;;;4996856;28;20240;-73
2023/07/12 06:25:35;;;;;;;10.52;9.05;;;25.60;99.90;;;;;;4996209;28;20178;-72
2023/07/12 06:28:00;;;;;;;9.10;8.20;;;25.80;99.90;;;;;;5001084;28;20266;-73
2023/07/12 06:30:26;;;;;;;11.02;9.75;;;26.20;99.90;;;;;;4995316;28;20294;-73
2023/07/12 06:32:51;;;;;;;12.23;9.13;;;27.50;99.90;;;;;;4999088;28;20216;-74
2023/07/12 06:35:17;;;;;;;11.23;8.55;;;29.50;99.90;;;;;;4995946;28;20268;-74
2023/07/12 06:37:43;;;;;;;9.85;7.85;;;31.80;99.90;;;;;;4998700;28;20581;-74
2023/07/12 06:40:09;;;;;;;9.13;8.00;;;33.40;99.90;;;;;;4997091;28;20213;-74
2023/07/12 06:42:36;;;;;;;8.40;7.10;;;34.20;99.90;;;;;;4999455;28;20256;-74
2023/07/12 06:45:01;;;;;;;7.90;7.10;;;34.90;99.90;;;;;;4998062;28;20580;-74
2023/07/12 06:47:28;;;;;;;10.02;7.13;;;36.10;99.90;;;;;;5000890;28;20218;-74
2023/07/12 06:49:54;;;;;;;8.32;6.43;;;36.20;99.90;;;;;;5009031;28;20567;-74
2023/07/12 06:52:20;;;;;;;10.32;6.70;;;35.20;99.90;;;;;;4996176;28;20219;-74
2023/07/12 06:54:46;;;;;;;9.43;7.57;;;34.20;99.90;;;;;;4997954;28;20273;-73
2023/07/12 06:57:19;;;;;;;7.55;6.75;;;33.20;99.90;;;;;;4997666;28;20213;-77
2023/07/12 06:59:45;;;;;;;10.02;6.50;;;33.20;99.90;;;;;;4998498;28;20574;-73
2023/07/12 07:02:10;;;;;;;12.20;6.78;;;33.00;99.90;;;;;;4997985;28;20224;-75
2023/07/12 07:04:36;;;;;;;8.43;6.35;;;32.10;99.90;;;;;;4999829;28;20253;-73
2023/07/12 07:07:02;;;;;;;10.77;6.55;;;31.50;99.90;;;;;;4999113;28;20244;-73
2023/07/12 07:09:27;;;;;;;11.82;6.93;;;31.20;99.90;;;;;;4998472;28;20209;-72
2023/07/12 07:11:53;;;;;;;9.98;6.40;;;30.40;99.90;;;;;;5002896;28;20223;-74
2023/07/12 07:14:19;;;;;;;8.07;6.55;;;29.90;99.90;;;;;;5003227;28;20227;-74
2023/07/12 07:16:46;;;;;;;13.57;6.65;;;29.50;99.90;;;;;;5002127;28;20997;-74
2023/07/12 07:19:11;;;;;;;9.90;6.15;;;29.40;99.90;;;;;;5007940;28;20359;-73
2023/07/12 07:21:38;;;;;;;10.02;6.57;;;29.20;99.90;;;;;;5006188;28;20237;-74
2023/07/12 07:24:04;;;;;;;9.75;6.75;;;29.10;99.90;;;;;;5007568;28;20217;-74
2023/07/12 07:26:30;;;;;;;8.43;6.28;;;29.10;99.90;;;;;;5003972;28;20284;-75
2023/07/12 07:28:56;;;;;;;9.88;6.45;;;28.80;99.90;;;;;;5004139;28;20185;-73
2023/07/12 07:31:21;;;;;;;12.40;7.32;;;28.50;99.90;;;;;;5002204;28;20209;-74
2023/07/12 07:33:47;;;;;;;8.93;7.25;;;28.10;99.90;;;;;;4996713;28;20210;-74
2023/07/12 07:36:14;;;;;;;13.82;7.80;;;27.90;99.90;;;;;;4999874;28;20210;-73
2023/07/12 07:38:40;;;;;;;12.30;7.63;;;27.70;99.90;;;;;;4992920;28;20325;-74
2023/07/12 07:41:10;;;;;;;11.05;7.03;;;27.70;99.90;;;;;;5017916;28;20200;-73
2023/07/12 07:43:39;;;;;;;14.20;8.35;;;27.60;99.90;;;;;;5000656;28;20550;-73
2023/07/12 07:46:05;;;;;;;13.73;7.85;;;27.90;99.90;;;;;;5002316;28;20209;-73
2023/07/12 07:48:31;;;;;;;11.68;7.50;;;27.90;99.90;;;;;;5014511;28;20217;-73
2023/07/12 07:50:56;;;;;;;10.98;7.00;;;28.10;99.90;;;;;;5003045;28;20218;-73
2023/07/12 07:53:22;;;;;;;13.02;7.50;;;28.40;99.90;;;;;;4999508;28;20583;-74
2023/07/12 07:55:49;;;;;;;8.57;7.25;;;29.20;99.90;;;;;;5003091;28;20181;-73
2023/07/12 07:58:15;;;;;;;8.45;7.57;;;30.00;99.90;;;;;;4999452;28;20217;-74
2023/07/12 08:00:41;;;;;;;10.18;6.97;;;30.80;99.90;;;;;;5002111;28;20209;-74
2023/07/12 08:03:07;;;;;;;8.18;7.03;;;30.40;99.90;;;;;;5002974;28;21458;-74
2023/07/12 08:05:33;;;;;;;9.32;7.47;;;29.50;99.90;;;;;;5002350;28;20229;-74
2023/07/12 08:07:59;;;;;;;7.65;5.68;;;28.90;99.90;;;;;;4998398;28;20200;-74
2023/07/12 08:10:26;;;;;;;10.02;5.88;;;28.10;99.90;;;;;;5005746;28;20251;-74
2023/07/12 08:12:54;;;;;;;9.48;5.43;;;27.90;99.90;;;;;;5002413;28;20221;-74
2023/07/12 08:15:20;;;;;;;7.20;5.07;;;29.00;99.90;;;;;;4998484;28;20234;-74
2023/07/12 08:17:46;;;;;;;10.02;5.25;;;30.60;99.90;;;;;;5000135;28;20248;-74
2023/07/12 08:20:12;;;;;;;5.85;4.70;;;32.10;99.90;;;;;;5000528;28;20181;-74
2023/07/12 08:22:38;;;;;;;7.45;4.38;;;33.20;99.90;;;;;;4995877;28;20190;-74
2023/07/12 08:25:04;;;;;;;5.82;4.30;;;33.90;99.90;;;;;;5002276;28;20216;-74
2023/07/12 08:27:33;;;;;;;5.07;4.32;;;34.80;99.90;;;;;;4998947;28;20197;-74
2023/07/12 08:29:59;;;;;;;5.93;4.47;;;35.20;99.90;;;;;;4998943;28;20325;-74
2023/07/12 08:32:30;;;;;;;4.90;3.70;;;34.60;99.90;;;;;;5001335;28;20726;-74
2023/07/12 08:34:57;;;;;;;10.77;7.53;;;33.80;99.90;;;;;;5005380;28;20204;-74
2023/07/12 08:37:23;;;;;;;5.40;3.50;;;33.80;99.90;;;;;;4996788;28;20217;-74
2023/07/12 08:39:49;;;;;;;7.40;4.13;;;34.40;99.90;;;;;;4998205;28;20224;-74
2023/07/12 08:42:26;;;;;;;6.53;3.42;;;35.00;99.70;;;;;;5002730;28;20680;-74
2023/07/12 08:44:54;;;;;;;4.80;3.33;;;34.00;99.90;;;;;;5014368;28;20236;-74
2023/07/12 08:47:24;;;;;;;6.43;3.60;;;32.40;99.90;;;;;;5001553;28;20277;-75
2023/07/12 08:49:50;;;;;;;4.85;3.72;;;31.40;99.90;;;;;;5011118;28;20271;-73
2023/07/12 08:52:22;;;;;;;5.43;3.13;;;30.70;99.90;;;;;;4995983;28;20270;-74
2023/07/12 08:54:49;;;;;;;5.72;3.58;;;30.10;99.90;;;;;;5016018;28;20241;-74
2023/07/12 08:57:22;;;;;;;4.88;3.50;;;29.70;99.90;;;;;;5004449;28;20239;-74
2023/07/12 09:00:07;;;;;;;4.32;3.35;;;29.50;99.90;;;;;;4998891;28;20806;-74
2023/07/12 09:02:34;;;;;;;5.03;3.13;;;29.70;99.90;;;;;;5002787;28;20213;-74
2023/07/12 09:05:16;;;;;;;3.22;2.90;;;30.30;99.90;;;;;;4996529;28;20205;-74
2023/07/12 09:07:59;;;;;;;4.63;3.00;;;31.70;99.90;;;;;;4998795;28;20292;-74
2023/07/12 09:10:39;;;;;;;4.32;3.17;;;32.10;99.90;;;;;;5001914;28;20237;-74
2023/07/12 09:13:06;;;;;;;5.47;2.83;;;33.20;99.90;;;;;;4997114;28;20213;-74
2023/07/12 09:15:42;;;;;;;3.88;3.15;;;33.60;99.90;;;;;;5014348;28;20206;-74
2023/07/12 09:18:21;;;;;;;6.03;3.85;;;33.80;99.90;;;;;;4999254;28;20229;-74
2023/07/12 09:20:50;;;;;;;5.82;3.60;;;34.30;99.90;;;;;;5000916;28;20301;-74
2023/07/12 09:23:16;;;;;;;6.32;3.35;;;34.60;99.90;;;;;;5000838;28;20676;-75
2023/07/12 09:25:47;;;;;;;4.75;3.00;;;34.30;99.90;;;;;;5018153;28;20592;-73
2023/07/12 09:28:14;;;;;;;4.93;3.20;;;34.10;99.90;;;;;;5000714;28;20209;-73
2023/07/12 09:30:41;;;;;;;5.25;3.25;;;33.70;99.90;;;;;;4998043;28;20223;-73
2023/07/12 09:33:06;;;;;;;4.43;3.58;;;34.00;99.90;;;;;;4995860;28;20233;-74
2023/07/12 09:35:45;;;;;;;3.40;2.80;;;33.80;99.90;;;;;;4995295;28;20722;-74
2023/07/12 09:38:23;;;;;;;5.95;3.10;;;33.90;99.90;;;;;;4994140;28;20578;-74
2023/07/12 09:40:50;;;;;;;7.45;2.70;;;34.00;99.90;;;;;;4996763;28;20201;-72
2023/07/12 09:43:25;;;;;;;5.07;2.95;;;32.40;99.90;;;;;;5001220;28;20614;-73
2023/07/12 09:46:12;;;;;;;4.03;3.10;;;32.50;99.90;;;;;;4999040;28;20706;-73
2023/07/12 09:48:56;;;;;;;5.30;3.42;;;32.00;99.90;;;;;;4996029;28;20370;-75
2023/07/12 09:51:48;;;;;;;7.55;4.18;;;31.80;99.90;;;;;;5002228;28;20247;-73
2023/07/12 09:54:41;;;;;;;5.95;3.83;;;31.10;99.90;;;;;;4996640;28;20231;-73
2023/07/12 09:57:16;;;;;;;5.07;3.92;;;30.40;99.90;;;;;;4997103;28;20232;-73
2023/07/12 09:59:58;;;;;;;4.25;3.30;;;30.20;99.90;;;;;;4999278;28;20759;-72
2023/07/12 10:02:31;;;;;;;3.40;3.10;;;30.20;99.90;;;;;;5000557;28;20221;-74
2023/07/12 10:05:08;;;;;;;4.10;3.25;;;30.70;99.90;;;;;;5000985;28;20181;-73
2023/07/12 10:08:12;;;;;;;3.38;2.53;;;31.30;99.90;;;;;;4999261;28;20262;-73
2023/07/12 10:10:45;;;;;;;3.40;2.38;;;31.00;99.90;;;;;;4981391;28;20213;-74
2023/07/12 10:13:31;;;;;;;2.78;2.58;;;30.70;99.90;;;;;;5000424;28;20219;-73
2023/07/12 10:15:59;;;;;;;2.97;2.40;;;30.40;99.90;;;;;;4995780;28;20220;-73
2023/07/12 10:18:28;;;;;;;5.93;2.35;;;30.40;99.90;;;;;;4998551;28;20219;-73
2023/07/12 10:20:55;;;;;;;3.50;2.03;;;30.30;99.90;;;;;;4995905;28;20225;-73
2023/07/12 10:23:27;;;;;;;4.75;2.33;;;30.60;99.90;;;;;;4998760;28;20180;-73
2023/07/12 10:26:03;;;;;;;4.43;2.78;;;30.80;99.90;;;;;;4999998;28;20651;-73
2023/07/12 10:28:49;;;;;;;4.90;3.58;;;30.50;99.90;;;;;;4996449;28;20232;-73
2023/07/12 10:31:26;;;;;;;6.88;3.58;;;30.30;99.90;;;;;;4996958;28;20232;-73
2023/07/12 10:33:59;;;;;;;2.58;2.10;;;30.70;99.90;;;;;;4998106;28;20209;-74
2023/07/12 10:36:26;;;;;;;6.38;4.10;;;30.70;99.90;;;;;;4997679;28;20791;-73
2023/07/12 10:38:52;;;;;;;4.03;2.63;;;30.80;99.90;;;;;;4999010;28;20303;-73
2023/07/12 10:41:41;;;;;;;5.57;2.83;;;31.20;99.90;;;;;;5002050;28;20880;-74
2023/07/12 10:44:30;;;;;;;4.15;2.67;;;31.50;99.90;;;;;;4998079;28;20177;-74
2023/07/12 10:46:59;;;;;;;2.78;1.98;;;31.50;99.90;;;;;;4997634;28;20173;-73
2023/07/12 10:49:44;;;;;;;4.22;3.40;;;31.50;99.90;;;;;;5003173;28;20248;-73
2023/07/12 10:52:10;;;;;;;12.73;8.85;;;30.90;99.90;;;;;;5003391;28;20683;-73
2023/07/12 10:54:35;;;;;;;4.10;2.92;;;31.10;99.90;;;;;;5001333;28;20212;-74
2023/07/12 10:57:06;;;;;;;2.50;1.90;;;30.90;99.90;;;;;;5002625;28;20222;-74
2023/07/12 10:59:34;;;;;;;2.97;2.67;;;30.60;99.90;;;;;;5001107;28;20715;-74
2023/07/12 11:02:06;;;;;;;6.55;3.45;;;30.00;99.90;;;;;;4998548;28;20288;-74
2023/07/12 11:04:34;;;;;;;3.80;3.47;;;30.10;99.90;;;;;;5005626;28;20737;-74
2023/07/12 11:07:00;;;;;;;3.90;2.90;;;30.00;99.90;;;;;;5004484;28;20212;-73
2023/07/12 11:09:45;;;;;;;2.85;2.40;;;30.10;99.90;;;;;;5007222;28;20224;-74
2023/07/12 11:12:14;;;;;;;4.22;2.00;;;30.40;99.90;;;;;;5001106;28;20217;-74
2023/07/12 11:14:41;;;;;;;3.55;2.20;;;30.30;99.90;;;;;;5001227;28;20217;-74
2023/07/12 11:17:06;;;;;;;3.42;2.67;;;30.00;99.90;;;;;;5002287;28;20212;-74
2023/07/12 11:19:41;;;;;;;5.60;2.58;;;30.00;99.90;;;;;;5000833;28;20527;-73
2023/07/12 11:22:23;;;;;;;3.15;1.77;;;30.10;99.90;;;;;;4998932;28;20303;-74
2023/07/12 11:25:00;;;;;;;3.58;2.25;;;30.60;99.90;;;;;;4999623;28;20205;-74
2023/07/12 11:27:53;;;;;;;2.58;1.88;;;30.70;99.90;;;;;;5006913;28;20240;-74
2023/07/12 11:30:28;;;;;;;3.55;2.38;;;30.50;99.90;;;;;;4996001;28;20224;-73
2023/07/12 11:33:20;;;;;;;4.30;2.10;;;30.00;99.90;;;;;;4993642;28;20213;-72
2023/07/12 11:36:09;;;;;;;2.05;1.35;;;30.20;99.90;;;;;;4983369;28;20221;-73
2023/07/12 11:38:36;;;;;;;3.63;2.15;;;30.10;99.90;;;;;;5011377;28;20226;-73
2023/07/12 11:41:13;;;;;;;2.25;1.63;;;30.20;99.90;;;;;;4999851;28;20201;-73
2023/07/12 11:43:40;;;;;;;1.95;1.75;;;30.00;99.90;;;;;;4998041;28;20216;-73
2023/07/12 11:46:23;;;;;;;3.70;1.98;;;29.90;99.90;;;;;;4999128;28;20209;-73
2023/07/12 11:48:54;;;;;;;3.00;1.70;;;30.30;99.90;;;;;;4999361;28;20220;-73
2023/07/12 11:51:36;;;;;;;2.95;1.52;;;30.20;99.90;;;;;;5004744;28;20219;-73
2023/07/12 11:54:14;;;;;;;2.72;1.85;;;30.20;99.90;;;;;;4997809;28;20310;-74
2023/07/12 11:56:44;;;;;;;4.32;2.03;;;30.60;99.90;;;;;;4998695;28;20221;-74
2023/07/12 11:59:32;;;;;;;4.18;1.70;;;30.40;99.90;;;;;;5000541;28;20188;-74
2023/07/12 12:01:59;;;;;;;1.80;1.60;;;30.50;99.90;;;;;;4999223;28;20279;-73
2023/07/12 12:04:31;;;;;;;1.55;1.40;;;30.60;99.90;;;;;;4999205;28;20208;-74
2023/07/12 12:07:02;;;;;;;3.30;2.40;;;30.60;99.90;;;;;;4995606;28;20742;-73
2023/07/12 12:09:34;;;;;;;3.28;2.25;;;30.70;99.90;;;;;;5013951;28;20631;-73
2023/07/12 12:12:02;;;;;;;2.28;2.08;;;30.60;99.90;;;;;;5000188;28;20707;-75
2023/07/12 12:14:30;;;;;;;2.97;1.77;;;30.70;99.90;;;;;;5003031;28;20699;-74
2023/07/12 12:17:02;;;;;;;2.40;1.90;;;30.50;99.90;;;;;;5002736;28;20648;-73
2023/07/12 12:19:30;;;;;;;3.83;2.38;;;30.50;99.90;;;;;;4998642;28;20215;-73
2023/07/12 12:22:17;;;;;;;4.13;3.58;;;30.60;99.90;;;;;;5000021;28;20252;-73
2023/07/12 12:24:48;;;;;;;3.50;2.50;;;30.40;99.90;;;;;;4996974;28;20289;-73
2023/07/12 12:27:18;;;;;;;2.58;2.25;;;30.30;99.90;;;;;;5001501;28;20264;-73
2023/07/12 12:29:44;;;;;;;1.75;1.40;;;30.20;99.90;;;;;;5003589;28;20257;-74
2023/07/12 12:32:15;;;;;;;2.47;1.75;;;30.40;99.90;;;;;;5000245;28;20231;-74
2023/07/12 12:34:47;;;;;;;1.95;1.70;;;30.40;99.90;;;;;;5002631;28;20193;-73
2023/07/12 12:37:27;;;;;;;2.63;1.70;;;30.30;99.90;;;;;;5012238;28;20216;-73
2023/07/12 12:40:04;;;;;;;6.05;3.88;;;30.30;99.90;;;;;;5001357;28;20204;-73
2023/07/12 12:42:31;;;;;;;4.50;1.90;;;30.30;99.90;;;;;;4996735;28;20213;-73
2023/07/12 12:44:57;;;;;;;3.53;1.52;;;30.30;99.90;;;;;;5002009;28;20209;-72
2023/07/12 12:47:33;;;;;;;1.95;1.60;;;30.30;99.90;;;;;;4994564;28;20685;-73
2023/07/12 12:49:59;;;;;;;2.72;1.77;;;30.20;99.80;;;;;;4995776;28;20210;-73
2023/07/12 12:52:25;;;;;;;2.28;1.52;;;30.40;99.70;;;;;;5001033;28;20232;-73